createdAt,value
2022-11-03T00:01:36.052Z,4.68
2022-11-03T00:04:04.417Z,4.65
2022-11-03T00:06:32.613Z,4.40
2022-11-03T00:09:01.616Z,4.00
2022-11-03T00:11:32.993Z,4.88
2022-11-03T00:14:01.617Z,5.43
2022-11-03T00:16:30.035Z,6.15
2022-11-03T00:18:57.896Z,5.70
2022-11-03T00:21:25.841Z,5.32
2022-11-03T00:23:53.891Z,5.60
2022-11-03T00:26:23.838Z,5.60
2022-11-03T00:28:55.469Z,6.18
2022-11-03T00:31:25.280Z,6.38
2022-11-03T00:33:53.902Z,6.97
2022-11-03T00:36:23.736Z,7.13
2022-11-03T00:38:51.971Z,7.53
2022-11-03T00:41:21.424Z,6.85
2022-11-03T00:43:50.285Z,7.05
2022-11-03T00:46:20.997Z,6.53
2022-11-03T00:48:49.350Z,6.68
2022-11-03T00:51:18.912Z,6.38
2022-11-03T00:53:49.099Z,7.22
2022-11-03T00:56:18.635Z,6.40
2022-11-03T00:58:47.401Z,5.68
2022-11-03T01:01:17.095Z,6.40
2022-11-03T01:04:01.952Z,6.30
2022-11-03T01:06:47.744Z,5.50
2022-11-03T01:09:15.644Z,5.63
2022-11-03T01:11:47.019Z,5.70
2022-11-03T01:14:16.646Z,5.30
2022-11-03T01:16:44.828Z,5.53
2022-11-03T01:19:14.072Z,5.18
2022-11-03T01:21:42.077Z,5.47
2022-11-03T01:24:09.949Z,5.80
2022-11-03T01:26:37.822Z,5.47
2022-11-03T01:29:06.080Z,5.22
2022-11-03T01:31:33.987Z,5.75
2022-11-03T01:34:01.928Z,5.43
2022-11-03T01:36:31.174Z,6.88
2022-11-03T01:38:59.171Z,5.53
2022-11-03T01:41:29.331Z,5.43
2022-11-03T01:44:29.546Z,6.75
2022-11-03T01:47:10.346Z,6.28
2022-11-03T01:49:43.636Z,4.80
2022-11-03T01:52:16.726Z,6.35
2022-11-03T01:54:47.163Z,6.32
2022-11-03T01:57:19.789Z,6.40
2022-11-03T01:59:49.512Z,6.07
2022-11-03T02:02:17.615Z,5.15
2022-11-03T02:04:45.994Z,6.35
2022-11-03T02:07:21.463Z,5.22
2022-11-03T02:09:49.384Z,5.35
2022-11-03T02:12:18.536Z,6.25
2022-11-03T02:14:52.363Z,5.43
2022-11-03T02:17:22.584Z,5.25
2022-11-03T02:19:53.657Z,6.63
2022-11-03T02:22:41.524Z,5.38
2022-11-03T02:25:18.557Z,5.83
2022-11-03T02:27:48.141Z,5.78
2022-11-03T02:30:16.322Z,5.53
2022-11-03T02:32:53.229Z,5.68
2022-11-03T02:35:25.733Z,6.10
2022-11-03T02:37:58.696Z,6.55
2022-11-03T02:40:31.522Z,6.55
2022-11-03T02:43:03.149Z,5.88
2022-11-03T02:45:32.170Z,6.72
2022-11-03T02:48:03.561Z,7.18
2022-11-03T02:50:33.684Z,7.00
2022-11-03T02:53:02.586Z,8.20
2022-11-03T02:55:36.524Z,7.70
2022-11-03T02:58:15.801Z,5.88
2022-11-03T03:00:51.804Z,7.03
2022-11-03T03:03:24.653Z,7.47
2022-11-03T03:05:58.040Z,7.50
2022-11-03T03:08:27.327Z,7.55
2022-11-03T03:10:55.974Z,6.65
2022-11-03T03:13:25.909Z,8.05
2022-11-03T03:16:05.475Z,7.53
2022-11-03T03:18:48.874Z,6.90
2022-11-03T03:21:22.194Z,7.60
2022-11-03T03:23:54.221Z,8.30
2022-11-03T03:26:26.997Z,5.95
2022-11-03T03:29:00.774Z,7.45
2022-11-03T03:31:32.012Z,6.47
2022-11-03T03:34:10.250Z,6.22
2022-11-03T03:36:47.274Z,6.90
2022-11-03T03:39:16.425Z,6.50
2022-11-03T03:41:46.861Z,6.53
2022-11-03T03:44:17.104Z,6.50
2022-11-03T03:46:49.598Z,7.93
2022-11-03T03:49:17.628Z,6.70
2022-11-03T03:51:46.948Z,6.93
2022-11-03T03:54:14.847Z,7.40
2022-11-03T03:56:47.073Z,7.50
2022-11-03T03:59:16.568Z,5.85
2022-11-03T04:01:44.548Z,6.30
2022-11-03T04:04:12.656Z,6.47
2022-11-03T04:06:40.578Z,6.63
2022-11-03T04:09:09.615Z,7.07
2022-11-03T04:11:54.807Z,7.38
2022-11-03T04:14:41.690Z,6.00
2022-11-03T04:17:38.068Z,6.72
2022-11-03T04:20:30.771Z,7.28
2022-11-03T04:22:58.824Z,6.82
2022-11-03T04:25:26.830Z,8.25
2022-11-03T04:27:54.751Z,7.20
2022-11-03T04:30:26.301Z,5.95
2022-11-03T04:32:54.936Z,7.38
2022-11-03T04:35:25.022Z,7.43
2022-11-03T04:37:57.323Z,6.80
2022-11-03T04:40:25.730Z,6.85
2022-11-03T04:42:53.865Z,6.82
2022-11-03T04:45:27.094Z,6.45
2022-11-03T04:47:55.397Z,8.57
2022-11-03T04:50:24.637Z,6.75
2022-11-03T04:52:56.488Z,8.30
2022-11-03T04:55:24.713Z,8.30
2022-11-03T04:57:58.050Z,7.25
2022-11-03T05:00:27.304Z,7.50
2022-11-03T05:02:56.368Z,8.18
2022-11-03T05:05:26.702Z,8.05
2022-11-03T05:07:56.403Z,7.63
2022-11-03T05:10:27.917Z,8.00
2022-11-03T05:12:56.929Z,6.10
2022-11-03T05:15:32.602Z,5.97
2022-11-03T05:18:02.474Z,6.75
2022-11-03T05:20:36.560Z,6.97
2022-11-03T05:23:06.074Z,8.55
2022-11-03T05:25:40.962Z,10.40
2022-11-03T05:28:24.505Z,8.38
2022-11-03T05:30:54.498Z,9.45
2022-11-03T05:33:27.559Z,9.05
2022-11-03T05:35:56.231Z,8.45
2022-11-03T05:38:24.744Z,8.68
2022-11-03T05:40:55.145Z,8.32
2022-11-03T05:43:23.120Z,8.45
2022-11-03T05:45:55.135Z,8.73
2022-11-03T05:48:30.916Z,8.95
2022-11-03T05:51:00.394Z,8.75
2022-11-03T05:53:31.380Z,7.90
2022-11-03T05:56:02.058Z,8.50
2022-11-03T05:58:33.228Z,9.18
2022-11-03T06:01:06.509Z,9.77
2022-11-03T06:03:37.487Z,8.52
2022-11-03T06:06:14.416Z,7.85
2022-11-03T06:08:45.001Z,8.73
2022-11-03T06:11:22.319Z,10.00
2022-11-03T06:13:50.268Z,8.10
2022-11-03T06:16:37.363Z,7.78
2022-11-03T06:19:19.930Z,7.93
2022-11-03T06:21:49.724Z,7.53
2022-11-03T06:24:21.634Z,8.02
2022-11-03T06:26:50.967Z,8.00
2022-11-03T06:29:21.151Z,8.05
2022-11-03T06:31:53.330Z,8.60
2022-11-03T06:34:35.411Z,7.78
2022-11-03T06:37:15.020Z,7.85
2022-11-03T06:39:43.140Z,7.68
2022-11-03T06:42:13.654Z,8.15
2022-11-03T06:44:42.587Z,7.00
2022-11-03T06:47:23.989Z,6.63
2022-11-03T06:49:54.002Z,6.95
2022-11-03T06:52:31.530Z,7.13
2022-11-03T06:55:21.728Z,7.88
2022-11-03T06:57:52.549Z,7.68
2022-11-03T07:00:40.178Z,6.38
2022-11-03T07:03:15.356Z,6.38
2022-11-03T07:05:45.126Z,5.88
2022-11-03T07:08:21.768Z,6.28
2022-11-03T07:10:51.666Z,7.13
2022-11-03T07:13:23.586Z,6.00
2022-11-03T07:15:52.135Z,5.78
2022-11-03T07:18:26.277Z,5.72
2022-11-03T07:20:55.494Z,5.80
2022-11-03T07:23:26.073Z,5.93
2022-11-03T07:25:55.339Z,4.68
2022-11-03T07:28:26.942Z,4.82
2022-11-03T07:30:54.958Z,6.22
2022-11-03T07:33:27.456Z,5.78
2022-11-03T07:38:47.611Z,6.40
2022-11-03T07:41:20.420Z,6.88
2022-11-03T07:43:55.614Z,4.43
2022-11-03T07:46:24.905Z,5.80
2022-11-03T07:48:57.556Z,5.60
2022-11-03T07:51:29.742Z,4.97
2022-11-03T07:54:00.042Z,5.30
2022-11-03T07:56:30.358Z,5.80
2022-11-03T07:59:02.928Z,5.05
2022-11-03T08:01:33.996Z,5.28
2022-11-03T08:04:07.109Z,5.32
2022-11-03T08:06:35.454Z,5.38
2022-11-03T08:09:03.452Z,5.18
2022-11-03T08:11:31.622Z,4.78
2022-11-03T08:14:00.783Z,5.47
2022-11-03T08:16:28.718Z,4.75
2022-11-03T08:18:56.649Z,5.20
2022-11-03T08:21:25.941Z,4.07
2022-11-03T08:23:53.829Z,4.50
2022-11-03T08:26:22.046Z,4.60
2022-11-03T08:28:50.178Z,4.40
2022-11-03T08:31:18.122Z,4.40
2022-11-03T08:33:46.113Z,4.00
2022-11-03T08:36:14.159Z,4.18
2022-11-03T08:38:43.491Z,5.10
2022-11-03T08:41:11.461Z,4.65
2022-11-03T08:43:39.339Z,3.97
2022-11-03T08:46:16.678Z,4.30
2022-11-03T08:48:46.672Z,4.43
2022-11-03T08:51:15.492Z,3.95
2022-11-03T08:53:45.150Z,4.03
2022-11-03T08:56:15.020Z,4.63
2022-11-03T08:58:44.507Z,4.85
2022-11-03T09:01:12.781Z,4.63
2022-11-03T09:03:41.001Z,4.03
2022-11-03T09:06:09.715Z,4.57
2022-11-03T09:11:27.133Z,4.70
2022-11-03T09:13:55.088Z,4.32
2022-11-03T09:16:22.963Z,4.22
2022-11-03T09:18:50.823Z,4.65
2022-11-03T09:21:18.728Z,3.85
2022-11-03T09:23:46.705Z,4.07
2022-11-03T09:26:14.659Z,5.50
2022-11-03T09:28:43.870Z,4.30
2022-11-03T09:31:11.828Z,4.50
2022-11-03T09:33:39.740Z,4.38
2022-11-03T09:36:08.223Z,4.72
2022-11-03T09:38:36.238Z,4.70
2022-11-03T09:41:13.460Z,5.28
2022-11-03T09:43:55.432Z,5.00
2022-11-03T09:46:23.435Z,5.15
2022-11-03T09:48:51.478Z,4.97
2022-11-03T09:51:22.005Z,4.80
2022-11-03T09:53:50.156Z,5.38
2022-11-03T09:56:22.715Z,5.25
2022-11-03T09:58:54.299Z,6.35
2022-11-03T10:01:24.354Z,4.88
2022-11-03T10:03:52.765Z,5.38
2022-11-03T10:06:21.200Z,5.10
2022-11-03T10:08:49.692Z,5.95
2022-11-03T10:11:17.739Z,5.88
2022-11-03T10:13:48.925Z,5.47
2022-11-03T10:16:19.962Z,6.10
2022-11-03T10:18:49.549Z,6.72
2022-11-03T10:21:20.124Z,5.22
2022-11-03T10:23:50.246Z,5.97
2022-11-03T10:26:20.450Z,5.82
2022-11-03T10:29:00.607Z,5.75
2022-11-03T10:31:37.113Z,6.13
2022-11-03T10:34:07.281Z,5.57
2022-11-03T10:36:36.212Z,6.15
2022-11-03T10:39:26.523Z,6.78
2022-11-03T10:41:59.495Z,5.90
2022-11-03T10:44:28.754Z,5.60
2022-11-03T10:46:59.310Z,6.20
2022-11-03T10:49:29.580Z,5.72
2022-11-03T10:52:17.116Z,5.70
2022-11-03T10:54:45.177Z,5.38
2022-11-03T10:57:13.102Z,6.75
2022-11-03T10:59:42.430Z,5.07
2022-11-03T11:02:17.620Z,6.10
2022-11-03T11:04:48.010Z,4.70
2022-11-03T11:07:26.425Z,5.57
2022-11-03T11:09:54.772Z,5.70
2022-11-03T11:12:24.815Z,5.38
2022-11-03T11:14:54.990Z,5.95
2022-11-03T11:17:44.003Z,4.97
2022-11-03T11:20:35.827Z,5.35
2022-11-03T11:23:50.002Z,5.20
2022-11-03T11:26:32.289Z,5.38
2022-11-03T11:29:43.111Z,5.35
2022-11-03T11:32:56.147Z,5.03
2022-11-03T11:36:09.572Z,4.43
2022-11-03T11:39:04.139Z,3.85
2022-11-03T11:42:09.995Z,4.65
2022-11-03T11:44:57.848Z,4.68
2022-11-03T11:47:45.808Z,4.20
2022-11-03T11:50:32.969Z,3.77
2022-11-03T11:53:13.067Z,4.00
2022-11-03T11:55:49.477Z,3.53
2022-11-03T11:58:24.552Z,3.42
2022-11-03T12:00:58.767Z,3.85
2022-11-03T12:03:33.819Z,3.55
2022-11-03T12:06:01.895Z,3.35
2022-11-03T12:08:32.444Z,3.42
2022-11-03T12:11:04.050Z,3.55
2022-11-03T12:13:44.763Z,4.30
2022-11-03T12:16:28.223Z,3.85
2022-11-03T12:18:56.198Z,2.95
2022-11-03T12:21:46.314Z,3.38
2022-11-03T12:24:28.430Z,3.10
2022-11-03T12:26:58.059Z,2.92
2022-11-03T12:29:26.201Z,3.50
2022-11-03T12:31:54.295Z,3.90
2022-11-03T12:34:22.233Z,3.45
2022-11-03T12:36:55.749Z,3.47
2022-11-03T12:39:24.171Z,3.08
2022-11-03T12:41:52.099Z,2.97
2022-11-03T12:44:21.448Z,3.60
2022-11-03T12:46:49.340Z,4.40
2022-11-03T12:49:17.346Z,3.83
2022-11-03T12:51:45.281Z,3.67
2022-11-03T12:54:13.238Z,4.40
2022-11-03T12:56:41.279Z,3.55
2022-11-03T12:59:09.249Z,4.53
2022-11-03T13:01:38.657Z,3.47
2022-11-03T13:04:06.740Z,3.70
2022-11-03T13:06:34.730Z,3.80
2022-11-03T13:09:02.701Z,3.45
2022-11-03T13:11:48.384Z,3.60
2022-11-03T13:14:16.434Z,3.67
2022-11-03T13:16:45.697Z,3.50
2022-11-03T13:19:13.644Z,3.35
2022-11-03T13:21:42.223Z,3.28
2022-11-03T13:24:10.273Z,3.63
2022-11-03T13:26:38.257Z,3.95
2022-11-03T13:29:06.157Z,3.25
2022-11-03T13:31:34.375Z,3.45
2022-11-03T13:34:03.625Z,3.92
2022-11-03T13:36:31.666Z,3.78
2022-11-03T13:38:59.631Z,3.30
2022-11-03T13:41:27.542Z,4.65
2022-11-03T13:43:55.482Z,3.50
2022-11-03T13:46:23.542Z,3.72
2022-11-03T13:51:40.760Z,3.72
2022-11-03T13:59:45.436Z,3.97
2022-11-03T14:05:04.273Z,3.40
2022-11-03T14:07:34.902Z,3.70
2022-11-03T14:10:04.310Z,3.70
2022-11-03T14:12:31.667Z,4.07
2022-11-03T14:14:59.894Z,3.50
2022-11-03T14:17:28.115Z,3.90
2022-11-03T14:20:00.742Z,3.50
2022-11-03T14:22:31.386Z,3.65
2022-11-03T14:25:01.059Z,3.47
2022-11-03T14:27:29.552Z,3.65
2022-11-03T14:29:57.537Z,3.65
2022-11-03T14:32:25.533Z,3.40
2022-11-03T14:34:53.711Z,3.70
2022-11-03T14:37:22.652Z,3.28
2022-11-03T14:39:50.700Z,4.05
2022-11-03T14:42:19.309Z,3.75
2022-11-03T14:44:48.404Z,3.42
2022-11-03T14:47:18.680Z,3.63
2022-11-03T14:49:47.061Z,3.60
2022-11-03T14:52:15.871Z,4.32
2022-11-03T14:54:44.281Z,4.25
2022-11-03T14:57:12.241Z,3.65
2022-11-03T14:59:41.739Z,4.57
2022-11-03T15:02:09.834Z,3.67
2022-11-03T15:04:37.906Z,3.83
2022-11-03T15:07:05.800Z,3.95
2022-11-03T15:09:33.723Z,4.10
2022-11-03T15:12:01.653Z,3.47
2022-11-03T15:14:29.934Z,4.30
2022-11-03T15:16:59.240Z,4.47
2022-11-03T15:19:27.191Z,4.45
2022-11-03T15:21:55.091Z,4.68
2022-11-03T15:27:10.889Z,5.55
2022-11-03T15:29:38.763Z,5.35
2022-11-03T15:32:08.179Z,5.13
2022-11-03T15:34:36.127Z,4.68
2022-11-03T15:37:04.018Z,4.38
2022-11-03T15:39:32.541Z,5.97
2022-11-03T15:42:00.454Z,4.00
2022-11-03T15:44:28.516Z,4.68
2022-11-03T15:46:56.356Z,5.15
2022-11-03T15:49:25.618Z,5.10
2022-11-03T15:51:53.517Z,4.63
2022-11-03T15:54:21.422Z,4.90
2022-11-03T15:56:49.943Z,5.25
2022-11-03T15:59:18.642Z,4.97
2022-11-03T16:01:46.616Z,5.45
2022-11-03T16:04:16.165Z,4.97
2022-11-03T16:09:33.247Z,5.32
2022-11-03T16:12:01.257Z,6.00
2022-11-03T16:14:30.467Z,5.25
2022-11-03T16:16:58.505Z,5.50
2022-11-03T16:19:26.547Z,5.32
2022-11-03T16:21:55.823Z,5.57
2022-11-03T16:24:29.588Z,5.40
2022-11-03T16:27:03.383Z,5.35
2022-11-03T16:29:31.264Z,5.53
2022-11-03T16:31:59.196Z,4.80
2022-11-03T16:34:27.224Z,5.18
2022-11-03T16:36:57.002Z,5.00
2022-11-03T16:39:24.933Z,5.07
2022-11-03T16:41:54.772Z,5.30
2022-11-03T16:44:23.052Z,5.80
2022-11-03T16:46:51.062Z,4.97
2022-11-03T16:49:19.041Z,5.75
2022-11-03T16:51:46.909Z,4.95
2022-11-03T16:54:16.170Z,5.15
2022-11-03T16:56:44.723Z,4.95
2022-11-03T16:59:12.692Z,4.85
2022-11-03T17:01:40.726Z,6.10
2022-11-03T17:04:08.713Z,6.60
2022-11-03T17:06:36.625Z,5.50
2022-11-03T17:09:05.446Z,5.30
2022-11-03T17:11:37.590Z,5.60
2022-11-03T17:14:06.875Z,6.32
2022-11-03T17:16:35.161Z,5.20
2022-11-03T17:19:03.191Z,5.20
2022-11-03T17:21:31.850Z,5.72
2022-11-03T17:23:59.996Z,5.30
2022-11-03T17:26:39.008Z,5.03
2022-11-03T17:29:12.494Z,4.50
2022-11-03T17:31:40.629Z,5.20
2022-11-03T17:34:11.904Z,4.95
2022-11-03T17:36:40.220Z,4.38
2022-11-03T17:39:08.286Z,4.85
2022-11-03T17:41:37.566Z,4.72
2022-11-03T17:44:10.300Z,4.90
2022-11-03T17:46:38.196Z,5.40
2022-11-03T17:49:06.142Z,5.05
2022-11-03T17:51:34.863Z,5.63
2022-11-03T17:54:08.002Z,6.35
2022-11-03T17:56:37.332Z,5.35
2022-11-03T17:59:05.635Z,5.82
2022-11-03T18:01:33.870Z,5.90
2022-11-03T18:04:03.523Z,5.57
2022-11-03T18:06:31.455Z,5.80
2022-11-03T18:08:59.443Z,5.43
2022-11-03T18:11:48.497Z,7.10
2022-11-03T18:14:18.025Z,6.65
2022-11-03T18:16:46.640Z,6.70
2022-11-03T18:19:16.543Z,6.68
2022-11-03T18:21:45.003Z,5.53
2022-11-03T18:24:15.040Z,6.55
2022-11-03T18:26:43.305Z,6.53
2022-11-03T18:29:11.793Z,6.15
2022-11-03T18:31:43.958Z,6.50
2022-11-03T18:34:16.594Z,7.82
2022-11-03T18:36:45.063Z,6.78
2022-11-03T18:39:17.900Z,6.72
2022-11-03T18:41:45.916Z,6.20
2022-11-03T18:44:20.507Z,6.20
2022-11-03T18:46:51.359Z,6.90
2022-11-03T18:49:19.889Z,7.13
2022-11-03T18:51:50.216Z,6.90
2022-11-03T18:54:20.958Z,6.53
2022-11-03T18:56:49.409Z,5.55
2022-11-03T18:59:22.046Z,5.88
2022-11-03T19:01:51.591Z,6.07
2022-11-03T19:04:19.985Z,6.30
2022-11-03T19:06:50.196Z,6.78
2022-11-03T19:09:21.708Z,5.80
2022-11-03T19:11:51.190Z,6.55
2022-11-03T19:14:24.085Z,7.53
2022-11-03T19:17:22.330Z,6.85
2022-11-03T19:19:42.279Z,7.45
2022-11-03T19:22:14.941Z,7.25
2022-11-03T19:24:43.165Z,7.15
2022-11-03T19:27:16.403Z,6.63
2022-11-03T19:29:46.839Z,8.00
2022-11-03T19:32:21.912Z,7.93
2022-11-03T19:34:55.254Z,8.10
2022-11-03T19:37:23.343Z,8.32
2022-11-03T19:39:51.267Z,8.00
2022-11-03T19:42:31.101Z,8.27
2022-11-03T19:44:59.860Z,8.10
2022-11-03T19:47:32.765Z,8.45
2022-11-03T19:50:02.413Z,9.50
2022-11-03T19:52:32.317Z,9.75
2022-11-03T19:55:02.771Z,9.73
2022-11-03T19:57:30.709Z,9.63
2022-11-03T19:59:59.141Z,8.45
2022-11-03T20:02:29.215Z,9.13
2022-11-03T20:04:57.277Z,10.85
2022-11-03T20:07:31.021Z,10.32
2022-11-03T20:10:00.731Z,9.57
2022-11-03T20:12:30.620Z,10.93
2022-11-03T20:14:58.572Z,11.90
2022-11-03T20:17:27.182Z,11.05
2022-11-03T20:19:56.552Z,10.80
2022-11-03T20:22:29.030Z,10.75
2022-11-03T20:25:00.013Z,9.80
2022-11-03T20:27:28.365Z,12.15
2022-11-03T20:29:56.422Z,10.15
2022-11-03T20:32:24.368Z,10.32
2022-11-03T20:34:52.262Z,11.35
2022-11-03T20:37:21.836Z,9.63
2022-11-03T20:39:50.371Z,10.10
2022-11-03T20:42:21.137Z,11.38
2022-11-03T20:44:49.235Z,11.45
2022-11-03T20:47:17.867Z,11.48
2022-11-03T20:49:46.074Z,10.57
2022-11-03T20:52:14.697Z,11.73
2022-11-03T20:54:44.546Z,10.20
2022-11-03T20:57:13.645Z,11.20
2022-11-03T20:59:42.038Z,10.32
2022-11-03T21:02:12.728Z,12.32
2022-11-03T21:04:41.156Z,10.00
2022-11-03T21:07:12.559Z,11.13
2022-11-03T21:09:40.945Z,10.52
2022-11-03T21:12:13.787Z,10.73
2022-11-03T21:15:04.968Z,12.63
2022-11-03T21:17:50.594Z,12.68
2022-11-03T21:20:18.486Z,13.95
2022-11-03T21:22:52.335Z,13.63
2022-11-03T21:25:23.330Z,15.68
2022-11-03T21:27:54.144Z,16.70
2022-11-03T21:30:22.957Z,15.27
2022-11-03T21:32:51.061Z,15.18
2022-11-03T21:35:21.513Z,14.85
2022-11-03T21:37:49.713Z,15.73
2022-11-03T21:40:17.983Z,15.98
2022-11-03T21:43:03.398Z,15.05
2022-11-03T21:45:33.146Z,14.15
2022-11-03T21:48:19.541Z,14.68
2022-11-03T21:50:47.782Z,14.77
2022-11-03T21:53:15.718Z,15.98
2022-11-03T21:55:43.621Z,14.20
2022-11-03T21:58:11.584Z,13.80
2022-11-03T22:00:40.859Z,12.75
2022-11-03T22:03:09.084Z,13.80
2022-11-03T22:05:37.234Z,14.32
2022-11-03T22:08:08.133Z,15.48
2022-11-03T22:10:39.344Z,16.63
2022-11-03T22:13:07.518Z,14.20
2022-11-03T22:15:53.020Z,12.15
2022-11-03T22:18:22.265Z,11.52
2022-11-03T22:21:07.760Z,13.43
2022-11-03T22:24:07.864Z,13.13
2022-11-03T22:26:53.146Z,14.27
2022-11-03T22:29:38.846Z,13.48
2022-11-03T22:32:14.300Z,14.75
2022-11-03T22:35:01.366Z,12.40
2022-11-03T22:40:10.066Z,13.23
2022-11-03T22:42:55.638Z,12.77
2022-11-03T22:45:41.163Z,12.43
2022-11-03T22:48:09.083Z,11.27
2022-11-03T22:50:38.309Z,10.43
2022-11-03T22:53:26.449Z,8.70
2022-11-03T22:55:53.777Z,8.70
2022-11-03T22:58:24.314Z,5.85
2022-11-03T23:00:54.528Z,6.10
2022-11-03T23:03:22.450Z,5.43
2022-11-03T23:05:51.708Z,5.32
2022-11-03T23:08:19.661Z,4.40
2022-11-03T23:10:47.620Z,3.85
2022-11-03T23:13:15.501Z,4.97
2022-11-03T23:15:43.931Z,4.18
2022-11-03T23:18:29.428Z,2.40
2022-11-03T23:21:07.580Z,2.45
2022-11-03T23:26:21.463Z,1.95
2022-11-03T23:28:49.362Z,2.10
2022-11-03T23:31:17.797Z,2.00
2022-11-03T23:33:45.768Z,2.08
2022-11-03T23:36:16.591Z,1.90
2022-11-03T23:38:46.265Z,2.30
2022-11-03T23:41:16.312Z,2.15
2022-11-03T23:43:44.685Z,1.88
2022-11-03T23:46:31.908Z,2.70
2022-11-03T23:49:00.098Z,1.60
2022-11-03T23:51:31.124Z,1.55
2022-11-03T23:54:00.439Z,1.60
2022-11-03T23:56:47.466Z,1.60
2022-11-03T23:59:17.312Z,1.65
